地図

経路データ

SID SEASON NUMBER BASIN SUBBASIN NAME ISO_TIME NATURE LAT LON WMO_WIND WMO_PRES WMO_AGENCY TRACK_TYPE DIST2LAND LANDFALL IFLAG USA_AGENCY USA_ATCF_ID USA_LAT USA_LON USA_RECORD USA_STATUS USA_WIND USA_PRES USA_SSHS USA_R34_NE USA_R34_SE USA_R34_SW USA_R34_NW USA_R50_NE USA_R50_SE USA_R50_SW USA_R50_NW USA_R64_NE USA_R64_SE USA_R64_SW USA_R64_NW USA_POCI USA_ROCI USA_RMW USA_EYE TOKYO_LAT TOKYO_LON TOKYO_GRADE TOKYO_WIND TOKYO_PRES TOKYO_R50_DIR TOKYO_R50_LONG TOKYO_R50_SHORT TOKYO_R30_DIR TOKYO_R30_LONG TOKYO_R30_SHORT TOKYO_LAND CMA_LAT CMA_LON CMA_CAT CMA_WIND CMA_PRES HKO_LAT HKO_LON HKO_CAT HKO_WIND HKO_PRES NEWDELHI_LAT NEWDELHI_LON NEWDELHI_GRADE NEWDELHI_WIND NEWDELHI_PRES NEWDELHI_CI NEWDELHI_DP NEWDELHI_POCI REUNION_LAT REUNION_LON REUNION_TYPE REUNION_WIND REUNION_PRES REUNION_TNUM REUNION_CI REUNION_RMW REUNION_R34_NE REUNION_R34_SE REUNION_R34_SW REUNION_R34_NW REUNION_R50_NE REUNION_R50_SE REUNION_R50_SW REUNION_R50_NW REUNION_R64_NE REUNION_R64_SE REUNION_R64_SW REUNION_R64_NW BOM_LAT BOM_LON BOM_TYPE BOM_WIND BOM_PRES BOM_TNUM BOM_CI BOM_RMW BOM_R34_NE BOM_R34_SE BOM_R34_SW BOM_R34_NW BOM_R50_NE BOM_R50_SE BOM_R50_SW BOM_R50_NW BOM_R64_NE BOM_R64_SE BOM_R64_SW BOM_R64_NW BOM_ROCI BOM_POCI BOM_EYE BOM_POS_METHOD BOM_PRES_METHOD NADI_LAT NADI_LON NADI_CAT NADI_WIND NADI_PRES WELLINGTON_LAT WELLINGTON_LON WELLINGTON_WIND WELLINGTON_PRES DS824_LAT DS824_LON DS824_STAGE DS824_WIND DS824_PRES TD9636_LAT TD9636_LON TD9636_STAGE TD9636_WIND TD9636_PRES TD9635_LAT TD9635_LON TD9635_WIND TD9635_PRES TD9635_ROCI NEUMANN_LAT NEUMANN_LON NEUMANN_CLASS NEUMANN_WIND NEUMANN_PRES MLC_LAT MLC_LON MLC_CLASS MLC_WIND MLC_PRES USA_GUST BOM_GUST BOM_GUST_PER REUNION_GUST REUNION_GUST_PER USA_SEAHGT USA_SEARAD_NE USA_SEARAD_SE USA_SEARAD_SW USA_SEARAD_NW STORM_SPEED STORM_DIR
1895218N20088 1895 22 NI BB NOT_NAMED 1895-08-06 00:00:00 TS 19.9000 87.7000 main 113 99 _________O____ -1 19.9000 87.7000 TC 30 3 316
1895218N20088 1895 22 NI BB NOT_NAMED 1895-08-06 03:00:00 TS 19.9900 87.6017 main 99 68 _________PO___ -1 20.0350 87.5525 TC 30 19.9000 87.7000 1 4 317
1895218N20088 1895 22 NI BB NOT_NAMED 1895-08-06 06:00:00 TS 20.1684 87.4350 main 68 45 _________OP___ -1 20.2000 87.4000 TC 30 20.1211 87.4875 1 5 321
1895218N20088 1895 22 NI BB NOT_NAMED 1895-08-06 09:00:00 TS 20.3715 87.2670 main 45 23 _________PP___ -1 20.4075 87.2425 TC 30 20.3236 87.2997 1 5 323
1895218N20088 1895 22 NI BB NOT_NAMED 1895-08-06 12:00:00 TS 20.5447 87.1310 main 23 0 _________OP___ -1 20.6000 87.1000 TC 30 20.4893 87.1620 1 4 324
1895218N20088 1895 22 NI BB NOT_NAMED 1895-08-06 15:00:00 TS 20.6575 87.0425 main 0 0 _________PO___ -1 20.7150 86.9849 TC 30 20.6000 87.1000 1 2 328
1895218N20088 1895 22 NI BB NOT_NAMED 1895-08-06 18:00:00 TS 20.7256 87.0094 main 0 0 _________OP___ -1 20.8000 86.9000 TC 30 20.6511 87.1187 1 1 15
1895218N20088 1895 22 NI BB NOT_NAMED 1895-08-06 21:00:00 TS 20.7585 87.0435 main 0 0 _________PP___ -1 20.8245 86.9464 TC 30 20.6925 87.1406 1 2 338
1895218N20088 1895 22 NI BB NOT_NAMED 1895-08-07 00:00:00 TS 20.8938 86.9336 main 0 0 _________OP___ -1 21.0000 86.8000 TC 30 20.7877 87.0673 1 7 315
1895218N20088 1895 22 NI BB NOT_NAMED 1895-08-07 03:00:00 TS 21.2740 86.4856 main 0 0 _________PO___ -1 21.5479 86.1712 TC 30 21.0000 86.8000 1 14 311
1895218N20088 1895 22 NI BB NOT_NAMED 1895-08-07 06:00:00 TS 21.8222 85.7682 main 0 0 _________OP___ -1 22.2000 85.3000 TC 30 21.4445 86.2364 1 18 307
1895218N20088 1895 22 NI BB NOT_NAMED 1895-08-07 09:00:00 TS 22.3393 84.9697 main 0 0 _________PP___ -1 22.6796 84.4718 TC 30 21.9989 85.4677 1 19 303
1895218N20088 1895 22 NI BB NOT_NAMED 1895-08-07 12:00:00 TS 22.8393 84.0822 main 0 0 _________OP___ -1 23.1000 83.6000 TC 30 22.5786 84.5644 1 19 301
1895218N20088 1895 22 NI BB NOT_NAMED 1895-08-07 15:00:00 TS 23.3222 83.1613 main 0 0 _________PO___ -1 23.5443 82.7226 TC 30 23.1000 83.6000 1 19 297
1895218N20088 1895 22 NI BB NOT_NAMED 1895-08-07 18:00:00 TS 23.6979 82.2364 main 0 0 _________OP___ -1 23.9000 81.8000 TC 30 23.4958 82.6728 1 19 290
1895218N20088 1895 22 NI BB NOT_NAMED 1895-08-07 21:00:00 TS 23.9665 81.2501 main 0 0 _________PP___ -1 24.1175 80.7923 TC 30 23.8154 81.7080 1 18 283
1895218N20088 1895 22 NI BB NOT_NAMED 1895-08-08 00:00:00 TS 24.1260 80.2695 main 0 0 _________OP___ -1 24.2000 79.8000 TC 30 24.0521 80.7391 1 17 277
1895218N20088 1895 22 NI BB NOT_NAMED 1895-08-08 03:00:00 TS 24.1859 79.3596 main 0 0 _________PO___ -1 24.1717 78.9193 TC 30 24.2000 79.8000 1 16 272
1895218N20088 1895 22 NI BB NOT_NAMED 1895-08-08 06:00:00 TS 24.1773 78.5201 main 0 0 _________OP___ -1 24.1000 78.1000 TC 30 24.2546 78.9401 1 15 269
1895218N20088 1895 22 NI AS NOT_NAMED 1895-08-08 09:00:00 TS 24.1605 77.7082 main 0 0 _________PP___ -1 24.0918 77.3001 TC 30 24.2291 78.1163 1 15 268
1895218N20088 1895 22 NI AS NOT_NAMED 1895-08-08 12:00:00 TS 24.1321 76.9047 main 0 0 _________OP___ -1 24.1000 76.5000 TC 30 24.1642 77.3095 1 15 268
1895218N20088 1895 22 NI AS NOT_NAMED 1895-08-08 15:00:00 TS 24.0998 76.0788 main 0 0 _________PO___ -1 24.0997 75.6575 TC 30 24.1000 76.5000 1 15 268
1895218N20088 1895 22 NI AS NOT_NAMED 1895-08-08 18:00:00 TS 24.0816 75.2980 main 0 0 _________OP___ -1 24.1000 74.8000 TC 30 24.0678 75.6715 1 15 269
1895218N20088 1895 22 NI AS NOT_NAMED 1895-08-08 21:00:00 TS 24.0792 74.4739 main 0 0 _________PP___ -1 24.1009 73.9475 TC 30 24.0647 74.8248 1 15 270
1895218N20088 1895 22 NI AS NOT_NAMED 1895-08-09 00:00:00 TS 24.0861 73.6770 main 0 0 _________OP___ -1 24.1000 73.1000 TC 30 24.0792 73.9656 1 13 271
1895218N20088 1895 22 NI AS NOT_NAMED 1895-08-09 03:00:00 NR 24.1000 73.1000 main 0 __________O___ -1 TC 24.1000 73.1000 1 11 272

IBTrACS Databaseについて

本データベースは、米国NOAAが公開する1842年以降の世界の熱帯低気圧のベストトラックデータアーカイブInternational Best Track Archive for Climate Stewardship (IBTrACS)を、ウェブで閲覧しやすい形式に変換したものです。

最終更新日:2021-11-26